sensor_id;sensor_type;location;lat;lon;timestamp;P1;durP1;ratioP1;P2;durP2;ratioP2
77880;SDS011;67077;50.298;18.996;2023-04-23T16:54:58;8.60;;;3.80;;
77880;SDS011;67077;50.298;18.996;2023-04-23T16:57:27;6.00;;;4.00;;
77880;SDS011;67077;50.298;18.996;2023-04-23T17:00:01;7.20;;;4.30;;
77880;SDS011;67077;50.298;18.996;2023-04-23T17:03:05;8.20;;;4.30;;
77880;SDS011;67077;50.298;18.996;2023-04-23T17:05:35;6.70;;;4.30;;
77880;SDS011;67077;50.298;18.996;2023-04-23T17:08:07;6.70;;;4.10;;
77880;SDS011;67077;50.298;18.996;2023-04-23T17:10:35;6.50;;;4.20;;
77880;SDS011;67077;50.298;18.996;2023-04-23T17:13:04;9.20;;;5.30;;
77880;SDS011;67077;50.298;18.996;2023-04-23T17:15:33;8.50;;;4.30;;
77880;SDS011;67077;50.298;18.996;2023-04-23T17:18:01;6.80;;;4.30;;
77880;SDS011;67077;50.298;18.996;2023-04-23T17:20:29;7.20;;;4.40;;
77880;SDS011;67077;50.298;18.996;2023-04-23T17:23:02;5.60;;;4.00;;
77880;SDS011;67077;50.298;18.996;2023-04-23T17:25:39;6.70;;;4.20;;
77880;SDS011;67077;50.298;18.996;2023-04-23T17:28:08;6.40;;;4.70;;
77880;SDS011;67077;50.298;18.996;2023-04-23T17:30:37;9.70;;;4.40;;
77880;SDS011;67077;50.298;18.996;2023-04-23T17:35:57;8.60;;;4.20;;
77880;SDS011;67077;50.298;18.996;2023-04-23T17:40:55;8.60;;;4.90;;
77880;SDS011;67077;50.298;18.996;2023-04-23T17:43:25;7.50;;;5.00;;
77880;SDS011;67077;50.298;18.996;2023-04-23T17:45:54;9.40;;;6.40;;
77880;SDS011;67077;50.298;18.996;2023-04-23T17:48:22;9.60;;;4.60;;
77880;SDS011;67077;50.298;18.996;2023-04-23T17:50:56;12.90;;;5.30;;
77880;SDS011;67077;50.298;18.996;2023-04-23T17:53:33;6.00;;;4.20;;
77880;SDS011;67077;50.298;18.996;2023-04-23T17:56:02;5.40;;;4.20;;
77880;SDS011;67077;50.298;18.996;2023-04-23T17:58:30;5.20;;;4.20;;
77880;SDS011;67077;50.298;18.996;2023-04-23T18:01:01;8.00;;;4.90;;
77880;SDS011;67077;50.298;18.996;2023-04-23T18:03:30;6.90;;;5.00;;
77880;SDS011;67077;50.298;18.996;2023-04-23T18:05:59;6.90;;;4.80;;
77880;SDS011;67077;50.298;18.996;2023-04-23T18:08:28;7.40;;;5.10;;
77880;SDS011;67077;50.298;18.996;2023-04-23T18:10:56;7.30;;;4.60;;
77880;SDS011;67077;50.298;18.996;2023-04-23T18:13:25;8.40;;;5.20;;
77880;SDS011;67077;50.298;18.996;2023-04-23T18:15:53;6.20;;;4.80;;
77880;SDS011;67077;50.298;18.996;2023-04-23T18:18:21;7.80;;;5.50;;
77880;SDS011;67077;50.298;18.996;2023-04-23T18:20:49;8.10;;;5.50;;
77880;SDS011;67077;50.298;18.996;2023-04-23T18:23:18;8.90;;;5.40;;
77880;SDS011;67077;50.298;18.996;2023-04-23T18:25:49;8.80;;;5.80;;
77880;SDS011;67077;50.298;18.996;2023-04-23T18:28:19;8.50;;;5.50;;
77880;SDS011;67077;50.298;18.996;2023-04-23T18:30:48;10.10;;;6.20;;
77880;SDS011;67077;50.298;18.996;2023-04-23T18:36:09;9.60;;;6.70;;
77880;SDS011;67077;50.298;18.996;2023-04-23T18:38:43;8.30;;;5.30;;
77880;SDS011;67077;50.298;18.996;2023-04-23T18:41:12;9.00;;;5.30;;
77880;SDS011;67077;50.298;18.996;2023-04-23T18:43:42;8.40;;;5.90;;
77880;SDS011;67077;50.298;18.996;2023-04-23T18:46:11;8.30;;;5.90;;
77880;SDS011;67077;50.298;18.996;2023-04-23T18:48:45;9.70;;;6.70;;
77880;SDS011;67077;50.298;18.996;2023-04-23T18:51:23;11.50;;;7.10;;
77880;SDS011;67077;50.298;18.996;2023-04-23T18:54:12;10.60;;;7.70;;
77880;SDS011;67077;50.298;18.996;2023-04-23T18:56:41;12.00;;;6.90;;
77880;SDS011;67077;50.298;18.996;2023-04-23T18:59:09;10.60;;;7.00;;
77880;SDS011;67077;50.298;18.996;2023-04-23T19:01:40;11.40;;;7.10;;
77880;SDS011;67077;50.298;18.996;2023-04-23T19:04:12;8.80;;;5.60;;
77880;SDS011;67077;50.298;18.996;2023-04-23T19:06:42;11.10;;;5.70;;
77880;SDS011;67077;50.298;18.996;2023-04-23T19:09:11;8.00;;;5.70;;
77880;SDS011;67077;50.298;18.996;2023-04-23T19:11:40;8.30;;;5.80;;
77880;SDS011;67077;50.298;18.996;2023-04-23T19:14:08;12.40;;;6.40;;
77880;SDS011;67077;50.298;18.996;2023-04-23T19:16:37;9.30;;;5.90;;
77880;SDS011;67077;50.298;18.996;2023-04-23T19:19:05;9.70;;;5.60;;
77880;SDS011;67077;50.298;18.996;2023-04-23T19:21:34;8.70;;;6.40;;
77880;SDS011;67077;50.298;18.996;2023-04-23T19:24:02;10.90;;;6.40;;
77880;SDS011;67077;50.298;18.996;2023-04-23T19:26:31;10.80;;;6.40;;
77880;SDS011;67077;50.298;18.996;2023-04-23T19:28:59;12.10;;;7.60;;
77880;SDS011;67077;50.298;18.996;2023-04-23T19:31:27;11.50;;;7.00;;
77880;SDS011;67077;50.298;18.996;2023-04-23T19:33:57;10.50;;;6.40;;
77880;SDS011;67077;50.298;18.996;2023-04-23T19:36:25;10.10;;;5.80;;
77880;SDS011;67077;50.298;18.996;2023-04-23T19:38:54;7.90;;;6.00;;
77880;SDS011;67077;50.298;18.996;2023-04-23T19:41:22;9.20;;;6.50;;
77880;SDS011;67077;50.298;18.996;2023-04-23T19:43:52;11.50;;;6.80;;
77880;SDS011;67077;50.298;18.996;2023-04-23T19:46:21;11.30;;;6.20;;
77880;SDS011;67077;50.298;18.996;2023-04-23T19:48:50;9.50;;;6.50;;
77880;SDS011;67077;50.298;18.996;2023-04-23T19:51:18;9.30;;;5.80;;
77880;SDS011;67077;50.298;18.996;2023-04-23T19:53:49;10.30;;;6.30;;
77880;SDS011;67077;50.298;18.996;2023-04-23T19:56:18;8.40;;;6.40;;
77880;SDS011;67077;50.298;18.996;2023-04-23T19:58:50;10.20;;;6.80;;
77880;SDS011;67077;50.298;18.996;2023-04-23T20:01:19;7.80;;;5.90;;
77880;SDS011;67077;50.298;18.996;2023-04-23T20:03:47;12.10;;;6.70;;
77880;SDS011;67077;50.298;18.996;2023-04-23T20:06:18;11.70;;;6.50;;
77880;SDS011;67077;50.298;18.996;2023-04-23T20:08:47;11.50;;;6.60;;
77880;SDS011;67077;50.298;18.996;2023-04-23T20:11:34;9.70;;;6.60;;
77880;SDS011;67077;50.298;18.996;2023-04-23T20:14:03;9.10;;;6.40;;
77880;SDS011;67077;50.298;18.996;2023-04-23T20:16:33;8.30;;;6.30;;
77880;SDS011;67077;50.298;18.996;2023-04-23T20:19:01;8.70;;;6.00;;
77880;SDS011;67077;50.298;18.996;2023-04-23T20:21:32;11.40;;;7.20;;
77880;SDS011;67077;50.298;18.996;2023-04-23T20:24:00;9.70;;;6.50;;
77880;SDS011;67077;50.298;18.996;2023-04-23T20:26:28;16.10;;;11.50;;
77880;SDS011;67077;50.298;18.996;2023-04-23T20:28:56;15.10;;;11.10;;
77880;SDS011;67077;50.298;18.996;2023-04-23T20:31:24;13.40;;;9.70;;
77880;SDS011;67077;50.298;18.996;2023-04-23T20:33:52;19.50;;;14.20;;
77880;SDS011;67077;50.298;18.996;2023-04-23T20:36:20;14.90;;;10.00;;
77880;SDS011;67077;50.298;18.996;2023-04-23T20:38:50;13.80;;;8.90;;
77880;SDS011;67077;50.298;18.996;2023-04-23T20:41:21;14.20;;;10.70;;
77880;SDS011;67077;50.298;18.996;2023-04-23T20:43:49;13.50;;;10.00;;
77880;SDS011;67077;50.298;18.996;2023-04-23T20:46:18;18.30;;;10.10;;
77880;SDS011;67077;50.298;18.996;2023-04-23T20:48:46;14.10;;;8.20;;
77880;SDS011;67077;50.298;18.996;2023-04-23T20:51:20;13.50;;;8.30;;
77880;SDS011;67077;50.298;18.996;2023-04-23T20:53:50;15.90;;;9.40;;
77880;SDS011;67077;50.298;18.996;2023-04-23T20:56:18;14.20;;;9.20;;
77880;SDS011;67077;50.298;18.996;2023-04-23T20:58:46;12.80;;;8.50;;
77880;SDS011;67077;50.298;18.996;2023-04-23T21:01:15;13.20;;;8.10;;
77880;SDS011;67077;50.298;18.996;2023-04-23T21:03:43;12.20;;;7.80;;
77880;SDS011;67077;50.298;18.996;2023-04-23T21:06:12;12.70;;;8.30;;
77880;SDS011;67077;50.298;18.996;2023-04-23T21:08:40;13.00;;;8.30;;
77880;SDS011;67077;50.298;18.996;2023-04-23T21:11:09;11.70;;;8.40;;
77880;SDS011;67077;50.298;18.996;2023-04-23T21:13:45;10.50;;;7.90;;
77880;SDS011;67077;50.298;18.996;2023-04-23T21:16:14;11.30;;;8.30;;
77880;SDS011;67077;50.298;18.996;2023-04-23T21:18:42;11.70;;;7.70;;
77880;SDS011;67077;50.298;18.996;2023-04-23T21:21:11;10.90;;;7.70;;
77880;SDS011;67077;50.298;18.996;2023-04-23T21:23:40;10.20;;;7.30;;
77880;SDS011;67077;50.298;18.996;2023-04-23T21:26:08;10.30;;;7.10;;
77880;SDS011;67077;50.298;18.996;2023-04-23T21:28:35;10.30;;;7.30;;
77880;SDS011;67077;50.298;18.996;2023-04-23T21:31:13;12.50;;;7.80;;
77880;SDS011;67077;50.298;18.996;2023-04-23T21:33:49;12.40;;;7.50;;
77880;SDS011;67077;50.298;18.996;2023-04-23T21:36:17;13.80;;;8.10;;
77880;SDS011;67077;50.298;18.996;2023-04-23T21:38:46;13.30;;;8.60;;
77880;SDS011;67077;50.298;18.996;2023-04-23T21:41:14;12.70;;;8.60;;
77880;SDS011;67077;50.298;18.996;2023-04-23T21:43:42;14.60;;;9.00;;
77880;SDS011;67077;50.298;18.996;2023-04-23T21:46:11;14.40;;;9.20;;
77880;SDS011;67077;50.298;18.996;2023-04-23T21:48:39;12.90;;;8.80;;
77880;SDS011;67077;50.298;18.996;2023-04-23T21:51:07;16.30;;;8.90;;
77880;SDS011;67077;50.298;18.996;2023-04-23T21:53:37;13.50;;;9.60;;
77880;SDS011;67077;50.298;18.996;2023-04-23T21:56:05;15.90;;;9.00;;
77880;SDS011;67077;50.298;18.996;2023-04-23T21:58:34;16.40;;;9.00;;
77880;SDS011;67077;50.298;18.996;2023-04-23T22:01:03;13.80;;;9.80;;
77880;SDS011;67077;50.298;18.996;2023-04-23T22:03:31;14.20;;;9.40;;
77880;SDS011;67077;50.298;18.996;2023-04-23T22:05:59;16.40;;;9.70;;
77880;SDS011;67077;50.298;18.996;2023-04-23T22:08:30;15.30;;;10.00;;
77880;SDS011;67077;50.298;18.996;2023-04-23T22:10:59;13.90;;;9.70;;
77880;SDS011;67077;50.298;18.996;2023-04-23T22:13:27;15.30;;;9.10;;
77880;SDS011;67077;50.298;18.996;2023-04-23T22:15:55;17.40;;;10.30;;
77880;SDS011;67077;50.298;18.996;2023-04-23T22:18:26;18.80;;;10.20;;
77880;SDS011;67077;50.298;18.996;2023-04-23T22:20:54;17.70;;;10.10;;
77880;SDS011;67077;50.298;18.996;2023-04-23T22:23:22;16.50;;;10.50;;
77880;SDS011;67077;50.298;18.996;2023-04-23T22:25:49;17.80;;;9.90;;
77880;SDS011;67077;50.298;18.996;2023-04-23T22:28:17;16.80;;;9.90;;
77880;SDS011;67077;50.298;18.996;2023-04-23T22:30:45;19.60;;;11.30;;
77880;SDS011;67077;50.298;18.996;2023-04-23T22:33:13;19.00;;;11.90;;
77880;SDS011;67077;50.298;18.996;2023-04-23T22:35:41;19.30;;;12.10;;
77880;SDS011;67077;50.298;18.996;2023-04-23T22:38:09;18.70;;;11.30;;
77880;SDS011;67077;50.298;18.996;2023-04-23T22:40:37;21.60;;;12.50;;
77880;SDS011;67077;50.298;18.996;2023-04-23T22:43:05;17.80;;;11.00;;
77880;SDS011;67077;50.298;18.996;2023-04-23T22:45:33;19.30;;;12.50;;
77880;SDS011;67077;50.298;18.996;2023-04-23T22:48:01;20.20;;;12.00;;
77880;SDS011;67077;50.298;18.996;2023-04-23T22:50:29;20.40;;;11.60;;
77880;SDS011;67077;50.298;18.996;2023-04-23T22:52:57;21.10;;;12.30;;
77880;SDS011;67077;50.298;18.996;2023-04-23T22:55:25;21.50;;;12.40;;
77880;SDS011;67077;50.298;18.996;2023-04-23T22:57:53;18.40;;;11.50;;
77880;SDS011;67077;50.298;18.996;2023-04-23T23:00:21;23.00;;;13.00;;
77880;SDS011;67077;50.298;18.996;2023-04-23T23:02:49;21.20;;;12.20;;
77880;SDS011;67077;50.298;18.996;2023-04-23T23:05:17;18.20;;;11.10;;
77880;SDS011;67077;50.298;18.996;2023-04-23T23:07:45;16.80;;;11.80;;
77880;SDS011;67077;50.298;18.996;2023-04-23T23:10:13;19.80;;;10.90;;
77880;SDS011;67077;50.298;18.996;2023-04-23T23:12:41;17.20;;;11.00;;
77880;SDS011;67077;50.298;18.996;2023-04-23T23:15:09;18.40;;;10.80;;
77880;SDS011;67077;50.298;18.996;2023-04-23T23:17:37;18.60;;;11.30;;
77880;SDS011;67077;50.298;18.996;2023-04-23T23:20:05;19.40;;;10.70;;
77880;SDS011;67077;50.298;18.996;2023-04-23T23:22:36;18.10;;;10.20;;
77880;SDS011;67077;50.298;18.996;2023-04-23T23:25:04;21.60;;;10.60;;
77880;SDS011;67077;50.298;18.996;2023-04-23T23:27:33;14.40;;;9.80;;
77880;SDS011;67077;50.298;18.996;2023-04-23T23:30:02;13.80;;;9.60;;
77880;SDS011;67077;50.298;18.996;2023-04-23T23:32:32;15.30;;;9.70;;
77880;SDS011;67077;50.298;18.996;2023-04-23T23:35:01;13.50;;;8.80;;
77880;SDS011;67077;50.298;18.996;2023-04-23T23:37:30;14.90;;;9.00;;
77880;SDS011;67077;50.298;18.996;2023-04-23T23:39:57;13.00;;;8.80;;
77880;SDS011;67077;50.298;18.996;2023-04-23T23:42:27;14.30;;;9.10;;
77880;SDS011;67077;50.298;18.996;2023-04-23T23:44:55;15.90;;;9.30;;
77880;SDS011;67077;50.298;18.996;2023-04-23T23:47:23;12.90;;;9.20;;
77880;SDS011;67077;50.298;18.996;2023-04-23T23:49:51;14.70;;;8.30;;
77880;SDS011;67077;50.298;18.996;2023-04-23T23:52:19;16.20;;;8.60;;
77880;SDS011;67077;50.298;18.996;2023-04-23T23:54:47;14.80;;;8.60;;
77880;SDS011;67077;50.298;18.996;2023-04-23T23:57:15;12.80;;;8.40;;
77880;SDS011;67077;50.298;18.996;2023-04-23T23:59:43;15.00;;;8.50;;
